LKMT/OSR METAR and TAF weather

Enter ICAO airport designator
Station Type Date Time Source
LKMT METAR 2021/07/30 07:00 UTC NOAA

LKMT 300700Z 23007KT CAVOK 22/16 Q1013 NOSIG


Station Type Date Time Source
LKMT Decoded METAR 2021/07/30 07:00 UTC NOAA

Ostrava / Mosnov, Czech Republic (LKMT) 49-41N 018-07E 256M
Jul 30, 2021 - 03:00 AM EDT / 2021.07.30 0700 UTC
Wind: from the SW (230 degrees) at 8 MPH (7 KT):0
Visibility: greater than 7 mile(s):0
Temperature: 71 F (22 C)
Dew Point: 60 F (16 C)
Relative Humidity: 68%
Pressure (altimeter): 29.91 in. Hg (1013 hPa)
ob: LKMT 300700Z 23007KT CAVOK 22/16 Q1013 NOSIG
cycle: 7

Station Type Date Time Source
LKMT TAF 2021/07/30 06:12 UTC NOAA

TAF TAF LKMT 300500Z 3006/3112 23008KT CAVOK
TEMPO 3012/3018 24012G22KT
TEMPO 3100/3112 8000 SHRA SCT035TCU PROB30
TEMPO 3100/3107 4000 TSRA SCT025CB

Example: see airport list